sensor_id;sensor_type;location;lat;lon;timestamp;P1;durP1;ratioP1;P2;durP2;ratioP2
20689;SDS011;10504;48.762;8.996;2022-09-06T00:00:53;2.80;;;1.60;;
20689;SDS011;10504;48.762;8.996;2022-09-06T00:03:19;3.23;;;1.70;;
20689;SDS011;10504;48.762;8.996;2022-09-06T00:05:44;1.27;;;0.80;;
20689;SDS011;10504;48.762;8.996;2022-09-06T00:08:10;1.80;;;1.30;;
20689;SDS011;10504;48.762;8.996;2022-09-06T00:10:36;3.90;;;1.10;;
20689;SDS011;10504;48.762;8.996;2022-09-06T00:13:05;2.20;;;1.37;;
20689;SDS011;10504;48.762;8.996;2022-09-06T00:15:32;3.03;;;1.40;;
20689;SDS011;10504;48.762;8.996;2022-09-06T00:18:00;2.73;;;1.27;;
20689;SDS011;10504;48.762;8.996;2022-09-06T00:20:27;2.30;;;1.13;;
20689;SDS011;10504;48.762;8.996;2022-09-06T00:22:57;3.17;;;1.27;;
20689;SDS011;10504;48.762;8.996;2022-09-06T00:25:24;3.57;;;1.67;;
20689;SDS011;10504;48.762;8.996;2022-09-06T00:27:57;3.13;;;1.70;;
20689;SDS011;10504;48.762;8.996;2022-09-06T00:30:25;3.00;;;1.33;;
20689;SDS011;10504;48.762;8.996;2022-09-06T00:32:52;4.60;;;1.57;;
20689;SDS011;10504;48.762;8.996;2022-09-06T00:35:18;3.63;;;1.60;;
20689;SDS011;10504;48.762;8.996;2022-09-06T00:37:45;3.53;;;1.67;;
20689;SDS011;10504;48.762;8.996;2022-09-06T00:40:12;3.40;;;1.63;;
20689;SDS011;10504;48.762;8.996;2022-09-06T00:42:38;2.80;;;1.63;;
20689;SDS011;10504;48.762;8.996;2022-09-06T00:45:04;3.87;;;1.70;;
20689;SDS011;10504;48.762;8.996;2022-09-06T00:47:31;3.63;;;1.70;;
20689;SDS011;10504;48.762;8.996;2022-09-06T00:49:59;3.90;;;1.80;;
20689;SDS011;10504;48.762;8.996;2022-09-06T00:52:26;2.70;;;1.63;;
20689;SDS011;10504;48.762;8.996;2022-09-06T00:54:52;4.13;;;1.63;;
20689;SDS011;10504;48.762;8.996;2022-09-06T00:57:19;2.80;;;1.50;;
20689;SDS011;10504;48.762;8.996;2022-09-06T00:59:45;5.53;;;1.70;;
20689;SDS011;10504;48.762;8.996;2022-09-06T01:02:12;2.57;;;1.53;;
20689;SDS011;10504;48.762;8.996;2022-09-06T01:04:38;3.90;;;1.70;;
20689;SDS011;10504;48.762;8.996;2022-09-06T01:12:49;4.17;;;1.83;;
20689;SDS011;10504;48.762;8.996;2022-09-06T01:28:43;4.50;;;1.83;;
20689;SDS011;10504;48.762;8.996;2022-09-06T01:36:39;4.37;;;1.63;;
20689;SDS011;10504;48.762;8.996;2022-09-06T01:39:28;2.90;;;1.43;;
20689;SDS011;10504;48.762;8.996;2022-09-06T01:41:56;3.77;;;1.87;;
20689;SDS011;10504;48.762;8.996;2022-09-06T01:44:24;5.27;;;1.63;;
20689;SDS011;10504;48.762;8.996;2022-09-06T02:00:27;3.30;;;1.63;;
20689;SDS011;10504;48.762;8.996;2022-09-06T02:08:08;3.83;;;1.80;;
20689;SDS011;10504;48.762;8.996;2022-09-06T02:13:07;3.93;;;1.90;;
20689;SDS011;10504;48.762;8.996;2022-09-06T02:15:56;3.90;;;1.57;;
20689;SDS011;10504;48.762;8.996;2022-09-06T02:18:29;3.40;;;1.63;;
20689;SDS011;10504;48.762;8.996;2022-09-06T02:20:59;2.40;;;1.10;;
20689;SDS011;10504;48.762;8.996;2022-09-06T02:23:27;4.00;;;1.50;;
20689;SDS011;10504;48.762;8.996;2022-09-06T02:25:58;2.43;;;1.43;;
20689;SDS011;10504;48.762;8.996;2022-09-06T02:28:37;3.73;;;1.73;;
20689;SDS011;10504;48.762;8.996;2022-09-06T02:31:04;2.37;;;1.13;;
20689;SDS011;10504;48.762;8.996;2022-09-06T02:33:38;3.57;;;1.50;;
20689;SDS011;10504;48.762;8.996;2022-09-06T02:36:07;6.00;;;2.17;;
20689;SDS011;10504;48.762;8.996;2022-09-06T02:38:34;12.17;;;3.43;;
20689;SDS011;10504;48.762;8.996;2022-09-06T02:41:03;5.23;;;2.30;;
20689;SDS011;10504;48.762;8.996;2022-09-06T02:43:30;3.70;;;1.80;;
20689;SDS011;10504;48.762;8.996;2022-09-06T02:45:55;4.63;;;1.70;;
20689;SDS011;10504;48.762;8.996;2022-09-06T02:48:21;5.37;;;2.13;;
20689;SDS011;10504;48.762;8.996;2022-09-06T02:50:47;4.87;;;2.30;;
20689;SDS011;10504;48.762;8.996;2022-09-06T02:53:13;7.50;;;2.00;;
20689;SDS011;10504;48.762;8.996;2022-09-06T02:55:39;5.70;;;2.07;;
20689;SDS011;10504;48.762;8.996;2022-09-06T02:58:07;8.47;;;2.37;;
20689;SDS011;10504;48.762;8.996;2022-09-06T03:00:34;9.37;;;2.47;;
20689;SDS011;10504;48.762;8.996;2022-09-06T03:02:59;4.40;;;1.77;;
20689;SDS011;10504;48.762;8.996;2022-09-06T03:05:25;3.60;;;1.47;;
20689;SDS011;10504;48.762;8.996;2022-09-06T03:07:52;5.10;;;2.13;;
20689;SDS011;10504;48.762;8.996;2022-09-06T03:10:18;5.33;;;1.90;;
20689;SDS011;10504;48.762;8.996;2022-09-06T03:12:45;5.33;;;2.30;;
20689;SDS011;10504;48.762;8.996;2022-09-06T03:15:12;3.03;;;1.53;;
20689;SDS011;10504;48.762;8.996;2022-09-06T03:17:39;3.43;;;1.77;;
20689;SDS011;10504;48.762;8.996;2022-09-06T03:20:06;3.63;;;2.30;;
20689;SDS011;10504;48.762;8.996;2022-09-06T03:22:33;6.67;;;2.53;;
20689;SDS011;10504;48.762;8.996;2022-09-06T03:25:00;5.00;;;2.30;;
20689;SDS011;10504;48.762;8.996;2022-09-06T03:27:25;5.53;;;2.20;;
20689;SDS011;10504;48.762;8.996;2022-09-06T03:29:51;4.43;;;2.10;;
20689;SDS011;10504;48.762;8.996;2022-09-06T03:32:17;4.57;;;2.10;;
20689;SDS011;10504;48.762;8.996;2022-09-06T03:34:43;3.10;;;1.57;;
20689;SDS011;10504;48.762;8.996;2022-09-06T03:37:08;3.37;;;1.80;;
20689;SDS011;10504;48.762;8.996;2022-09-06T03:39:34;5.20;;;1.67;;
20689;SDS011;10504;48.762;8.996;2022-09-06T03:42:00;4.90;;;1.37;;
20689;SDS011;10504;48.762;8.996;2022-09-06T03:44:25;3.67;;;1.97;;
20689;SDS011;10504;48.762;8.996;2022-09-06T03:46:51;3.43;;;1.80;;
20689;SDS011;10504;48.762;8.996;2022-09-06T03:49:17;5.00;;;1.93;;
20689;SDS011;10504;48.762;8.996;2022-09-06T03:51:42;4.90;;;1.87;;
20689;SDS011;10504;48.762;8.996;2022-09-06T03:54:08;4.70;;;2.00;;
20689;SDS011;10504;48.762;8.996;2022-09-06T03:56:34;4.43;;;1.97;;
20689;SDS011;10504;48.762;8.996;2022-09-06T03:59:00;5.83;;;2.00;;
20689;SDS011;10504;48.762;8.996;2022-09-06T04:01:25;7.13;;;1.93;;
20689;SDS011;10504;48.762;8.996;2022-09-06T04:03:51;4.00;;;1.63;;
20689;SDS011;10504;48.762;8.996;2022-09-06T04:06:17;4.57;;;1.93;;
20689;SDS011;10504;48.762;8.996;2022-09-06T04:08:42;6.00;;;2.10;;
20689;SDS011;10504;48.762;8.996;2022-09-06T04:11:08;3.20;;;1.40;;
20689;SDS011;10504;48.762;8.996;2022-09-06T04:13:34;3.70;;;1.70;;
20689;SDS011;10504;48.762;8.996;2022-09-06T04:16:00;4.63;;;2.33;;
20689;SDS011;10504;48.762;8.996;2022-09-06T04:18:27;6.17;;;2.53;;
20689;SDS011;10504;48.762;8.996;2022-09-06T04:20:53;5.53;;;2.43;;
20689;SDS011;10504;48.762;8.996;2022-09-06T04:23:20;5.80;;;2.10;;
20689;SDS011;10504;48.762;8.996;2022-09-06T04:25:46;2.13;;;1.50;;
20689;SDS011;10504;48.762;8.996;2022-09-06T04:28:13;5.80;;;2.10;;
20689;SDS011;10504;48.762;8.996;2022-09-06T04:30:39;5.97;;;2.00;;
20689;SDS011;10504;48.762;8.996;2022-09-06T04:33:05;2.43;;;1.37;;
20689;SDS011;10504;48.762;8.996;2022-09-06T04:35:30;5.73;;;2.00;;
20689;SDS011;10504;48.762;8.996;2022-09-06T04:37:59;3.47;;;1.73;;
20689;SDS011;10504;48.762;8.996;2022-09-06T04:40:25;2.97;;;1.70;;
20689;SDS011;10504;48.762;8.996;2022-09-06T04:42:51;3.97;;;2.00;;
20689;SDS011;10504;48.762;8.996;2022-09-06T04:45:16;3.93;;;1.90;;
20689;SDS011;10504;48.762;8.996;2022-09-06T04:47:42;5.37;;;2.23;;
20689;SDS011;10504;48.762;8.996;2022-09-06T04:50:08;3.50;;;1.70;;
20689;SDS011;10504;48.762;8.996;2022-09-06T04:52:33;4.03;;;1.83;;
20689;SDS011;10504;48.762;8.996;2022-09-06T04:54:59;5.07;;;1.53;;
20689;SDS011;10504;48.762;8.996;2022-09-06T04:57:24;3.03;;;1.50;;
20689;SDS011;10504;48.762;8.996;2022-09-06T04:59:50;6.57;;;2.37;;
20689;SDS011;10504;48.762;8.996;2022-09-06T05:02:16;3.67;;;1.80;;
20689;SDS011;10504;48.762;8.996;2022-09-06T05:04:42;4.27;;;2.03;;
20689;SDS011;10504;48.762;8.996;2022-09-06T05:07:07;2.83;;;1.60;;
20689;SDS011;10504;48.762;8.996;2022-09-06T05:09:33;3.20;;;1.70;;
20689;SDS011;10504;48.762;8.996;2022-09-06T05:11:59;7.13;;;1.90;;
20689;SDS011;10504;48.762;8.996;2022-09-06T05:14:25;4.40;;;1.93;;
20689;SDS011;10504;48.762;8.996;2022-09-06T05:16:52;5.13;;;1.87;;
20689;SDS011;10504;48.762;8.996;2022-09-06T05:19:18;4.63;;;1.93;;
20689;SDS011;10504;48.762;8.996;2022-09-06T05:21:44;3.60;;;1.63;;
20689;SDS011;10504;48.762;8.996;2022-09-06T05:24:10;3.77;;;1.80;;
20689;SDS011;10504;48.762;8.996;2022-09-06T05:26:36;3.83;;;1.80;;
20689;SDS011;10504;48.762;8.996;2022-09-06T05:29:01;4.00;;;1.80;;
20689;SDS011;10504;48.762;8.996;2022-09-06T05:33:53;3.53;;;1.67;;
20689;SDS011;10504;48.762;8.996;2022-09-06T05:36:21;2.97;;;1.53;;
20689;SDS011;10504;48.762;8.996;2022-09-06T05:38:54;4.47;;;1.77;;
20689;SDS011;10504;48.762;8.996;2022-09-06T05:41:20;3.27;;;1.40;;
20689;SDS011;10504;48.762;8.996;2022-09-06T05:43:47;3.73;;;1.50;;
20689;SDS011;10504;48.762;8.996;2022-09-06T05:46:13;4.87;;;2.00;;
20689;SDS011;10504;48.762;8.996;2022-09-06T05:48:40;5.10;;;1.83;;
20689;SDS011;10504;48.762;8.996;2022-09-06T05:51:07;4.13;;;1.73;;
20689;SDS011;10504;48.762;8.996;2022-09-06T05:53:37;2.00;;;1.17;;
20689;SDS011;10504;48.762;8.996;2022-09-06T05:56:05;3.97;;;1.97;;
20689;SDS011;10504;48.762;8.996;2022-09-06T05:58:31;3.17;;;1.70;;
20689;SDS011;10504;48.762;8.996;2022-09-06T06:01:11;2.67;;;1.60;;
20689;SDS011;10504;48.762;8.996;2022-09-06T06:03:38;3.23;;;1.60;;
20689;SDS011;10504;48.762;8.996;2022-09-06T06:06:04;2.93;;;1.37;;
20689;SDS011;10504;48.762;8.996;2022-09-06T06:08:29;1.87;;;1.37;;
20689;SDS011;10504;48.762;8.996;2022-09-06T06:10:59;4.73;;;1.80;;
20689;SDS011;10504;48.762;8.996;2022-09-06T06:13:26;4.03;;;1.30;;
20689;SDS011;10504;48.762;8.996;2022-09-06T06:15:52;2.13;;;1.40;;
20689;SDS011;10504;48.762;8.996;2022-09-06T06:18:18;5.60;;;1.80;;
20689;SDS011;10504;48.762;8.996;2022-09-06T06:20:44;2.30;;;1.70;;
20689;SDS011;10504;48.762;8.996;2022-09-06T06:23:09;6.07;;;2.20;;
20689;SDS011;10504;48.762;8.996;2022-09-06T06:25:35;3.13;;;1.47;;
20689;SDS011;10504;48.762;8.996;2022-09-06T06:28:01;4.37;;;1.80;;
20689;SDS011;10504;48.762;8.996;2022-09-06T06:30:27;4.53;;;1.83;;
20689;SDS011;10504;48.762;8.996;2022-09-06T06:32:52;2.73;;;1.77;;
20689;SDS011;10504;48.762;8.996;2022-09-06T06:35:18;5.03;;;2.07;;
20689;SDS011;10504;48.762;8.996;2022-09-06T06:37:43;3.77;;;1.97;;
20689;SDS011;10504;48.762;8.996;2022-09-06T06:40:09;3.97;;;2.03;;
20689;SDS011;10504;48.762;8.996;2022-09-06T06:42:35;4.00;;;1.63;;
20689;SDS011;10504;48.762;8.996;2022-09-06T06:45:01;4.90;;;2.17;;
20689;SDS011;10504;48.762;8.996;2022-09-06T06:47:26;4.37;;;1.93;;
20689;SDS011;10504;48.762;8.996;2022-09-06T06:49:52;5.00;;;1.83;;
20689;SDS011;10504;48.762;8.996;2022-09-06T06:52:18;5.30;;;1.60;;
20689;SDS011;10504;48.762;8.996;2022-09-06T06:54:45;4.53;;;1.93;;
20689;SDS011;10504;48.762;8.996;2022-09-06T06:57:11;3.30;;;1.40;;
20689;SDS011;10504;48.762;8.996;2022-09-06T06:59:36;1.93;;;1.47;;
20689;SDS011;10504;48.762;8.996;2022-09-06T07:02:03;4.40;;;2.00;;
20689;SDS011;10504;48.762;8.996;2022-09-06T07:04:30;4.50;;;1.67;;
20689;SDS011;10504;48.762;8.996;2022-09-06T07:06:55;2.60;;;1.70;;
20689;SDS011;10504;48.762;8.996;2022-09-06T07:09:21;3.07;;;1.87;;
20689;SDS011;10504;48.762;8.996;2022-09-06T07:11:47;4.27;;;2.00;;
20689;SDS011;10504;48.762;8.996;2022-09-06T07:14:14;4.37;;;1.70;;
20689;SDS011;10504;48.762;8.996;2022-09-06T07:16:41;5.87;;;2.57;;
20689;SDS011;10504;48.762;8.996;2022-09-06T07:19:07;4.60;;;2.17;;
20689;SDS011;10504;48.762;8.996;2022-09-06T07:21:32;4.63;;;2.47;;
20689;SDS011;10504;48.762;8.996;2022-09-06T07:23:58;3.73;;;1.77;;
20689;SDS011;10504;48.762;8.996;2022-09-06T07:26:25;5.50;;;1.97;;
20689;SDS011;10504;48.762;8.996;2022-09-06T07:28:56;4.17;;;2.40;;
20689;SDS011;10504;48.762;8.996;2022-09-06T07:31:23;4.17;;;1.93;;
20689;SDS011;10504;48.762;8.996;2022-09-06T07:33:50;3.20;;;1.73;;
20689;SDS011;10504;48.762;8.996;2022-09-06T07:36:16;5.33;;;2.10;;
20689;SDS011;10504;48.762;8.996;2022-09-06T07:38:42;4.03;;;2.03;;
20689;SDS011;10504;48.762;8.996;2022-09-06T07:41:11;5.57;;;2.10;;
20689;SDS011;10504;48.762;8.996;2022-09-06T07:43:37;4.23;;;2.07;;
20689;SDS011;10504;48.762;8.996;2022-09-06T07:46:09;4.83;;;1.93;;
20689;SDS011;10504;48.762;8.996;2022-09-06T07:48:38;4.93;;;1.87;;
20689;SDS011;10504;48.762;8.996;2022-09-06T07:51:09;4.57;;;1.87;;
20689;SDS011;10504;48.762;8.996;2022-09-06T07:53:43;3.13;;;1.60;;
20689;SDS011;10504;48.762;8.996;2022-09-06T07:56:14;5.63;;;2.23;;
20689;SDS011;10504;48.762;8.996;2022-09-06T07:58:40;5.30;;;2.10;;
20689;SDS011;10504;48.762;8.996;2022-09-06T08:03:53;3.33;;;1.73;;
20689;SDS011;10504;48.762;8.996;2022-09-06T08:06:21;5.13;;;1.87;;
20689;SDS011;10504;48.762;8.996;2022-09-06T08:08:47;4.33;;;1.83;;
20689;SDS011;10504;48.762;8.996;2022-09-06T08:11:13;4.33;;;2.00;;
20689;SDS011;10504;48.762;8.996;2022-09-06T08:13:39;5.33;;;2.23;;
20689;SDS011;10504;48.762;8.996;2022-09-06T08:16:06;4.73;;;2.13;;
20689;SDS011;10504;48.762;8.996;2022-09-06T08:18:34;7.50;;;2.33;;
20689;SDS011;10504;48.762;8.996;2022-09-06T08:21:07;4.10;;;2.00;;
20689;SDS011;10504;48.762;8.996;2022-09-06T08:23:35;4.77;;;2.07;;
20689;SDS011;10504;48.762;8.996;2022-09-06T08:26:01;5.77;;;2.10;;
20689;SDS011;10504;48.762;8.996;2022-09-06T08:28:27;5.67;;;2.50;;
20689;SDS011;10504;48.762;8.996;2022-09-06T08:30:53;4.00;;;1.90;;
20689;SDS011;10504;48.762;8.996;2022-09-06T08:33:18;7.03;;;2.20;;
20689;SDS011;10504;48.762;8.996;2022-09-06T08:35:55;4.83;;;2.43;;
20689;SDS011;10504;48.762;8.996;2022-09-06T08:38:24;5.40;;;2.07;;
20689;SDS011;10504;48.762;8.996;2022-09-06T08:40:51;5.00;;;2.07;;
20689;SDS011;10504;48.762;8.996;2022-09-06T08:43:19;4.73;;;2.30;;
20689;SDS011;10504;48.762;8.996;2022-09-06T08:45:53;3.23;;;1.93;;
20689;SDS011;10504;48.762;8.996;2022-09-06T08:48:20;6.63;;;1.97;;
20689;SDS011;10504;48.762;8.996;2022-09-06T08:51:06;5.47;;;2.00;;
20689;SDS011;10504;48.762;8.996;2022-09-06T08:53:33;5.37;;;1.80;;
20689;SDS011;10504;48.762;8.996;2022-09-06T08:56:09;4.60;;;1.90;;
20689;SDS011;10504;48.762;8.996;2022-09-06T08:59:23;2.77;;;1.87;;
20689;SDS011;10504;48.762;8.996;2022-09-06T09:01:55;2.63;;;1.57;;
20689;SDS011;10504;48.762;8.996;2022-09-06T09:04:35;5.07;;;2.50;;
20689;SDS011;10504;48.762;8.996;2022-09-06T09:07:20;2.63;;;1.67;;
20689;SDS011;10504;48.762;8.996;2022-09-06T09:09:59;4.07;;;2.10;;
20689;SDS011;10504;48.762;8.996;2022-09-06T09:12:30;7.03;;;2.27;;
20689;SDS011;10504;48.762;8.996;2022-09-06T09:15:04;4.87;;;1.90;;
20689;SDS011;10504;48.762;8.996;2022-09-06T09:17:34;3.40;;;1.67;;
20689;SDS011;10504;48.762;8.996;2022-09-06T09:20:01;4.43;;;2.03;;
20689;SDS011;10504;48.762;8.996;2022-09-06T09:22:27;6.50;;;2.00;;
20689;SDS011;10504;48.762;8.996;2022-09-06T09:24:53;4.27;;;1.83;;
20689;SDS011;10504;48.762;8.996;2022-09-06T09:27:24;4.17;;;2.10;;
20689;SDS011;10504;48.762;8.996;2022-09-06T09:32:28;3.10;;;1.40;;
20689;SDS011;10504;48.762;8.996;2022-09-06T09:37:38;4.03;;;2.53;;
20689;SDS011;10504;48.762;8.996;2022-09-06T09:40:04;2.80;;;1.40;;
20689;SDS011;10504;48.762;8.996;2022-09-06T09:42:36;6.53;;;2.53;;
20689;SDS011;10504;48.762;8.996;2022-09-06T09:45:04;4.40;;;1.80;;
20689;SDS011;10504;48.762;8.996;2022-09-06T09:47:51;5.93;;;2.00;;
20689;SDS011;10504;48.762;8.996;2022-09-06T09:50:24;2.53;;;1.57;;
20689;SDS011;10504;48.762;8.996;2022-09-06T09:52:49;4.17;;;2.03;;
20689;SDS011;10504;48.762;8.996;2022-09-06T09:55:15;3.53;;;1.83;;
20689;SDS011;10504;48.762;8.996;2022-09-06T09:57:47;4.20;;;1.50;;
20689;SDS011;10504;48.762;8.996;2022-09-06T10:00:17;2.53;;;1.77;;
20689;SDS011;10504;48.762;8.996;2022-09-06T10:03:00;3.10;;;1.93;;
20689;SDS011;10504;48.762;8.996;2022-09-06T10:05:57;4.60;;;2.33;;
20689;SDS011;10504;48.762;8.996;2022-09-06T10:08:26;3.53;;;1.63;;
20689;SDS011;10504;48.762;8.996;2022-09-06T10:10:56;4.87;;;1.93;;
20689;SDS011;10504;48.762;8.996;2022-09-06T10:13:26;7.40;;;1.93;;
20689;SDS011;10504;48.762;8.996;2022-09-06T10:15:58;3.20;;;1.50;;
20689;SDS011;10504;48.762;8.996;2022-09-06T10:20:58;2.93;;;1.80;;
20689;SDS011;10504;48.762;8.996;2022-09-06T10:26:08;3.07;;;1.70;;
20689;SDS011;10504;48.762;8.996;2022-09-06T10:28:46;2.33;;;1.30;;
20689;SDS011;10504;48.762;8.996;2022-09-06T10:41:57;2.63;;;1.57;;
20689;SDS011;10504;48.762;8.996;2022-09-06T10:50:44;4.00;;;1.67;;
20689;SDS011;10504;48.762;8.996;2022-09-06T10:56:15;4.10;;;1.57;;
20689;SDS011;10504;48.762;8.996;2022-09-06T10:59:01;2.00;;;1.70;;
20689;SDS011;10504;48.762;8.996;2022-09-06T11:01:44;1.70;;;1.17;;
20689;SDS011;10504;48.762;8.996;2022-09-06T11:04:38;2.93;;;1.40;;
20689;SDS011;10504;48.762;8.996;2022-09-06T11:12:56;3.87;;;1.83;;
20689;SDS011;10504;48.762;8.996;2022-09-06T11:15:28;3.93;;;1.97;;
20689;SDS011;10504;48.762;8.996;2022-09-06T11:18:14;2.10;;;1.47;;
20689;SDS011;10504;48.762;8.996;2022-09-06T11:29:05;4.17;;;1.83;;
20689;SDS011;10504;48.762;8.996;2022-09-06T11:31:47;3.17;;;1.43;;
20689;SDS011;10504;48.762;8.996;2022-09-06T11:34:27;3.03;;;1.23;;
20689;SDS011;10504;48.762;8.996;2022-09-06T11:37:02;2.30;;;1.20;;
20689;SDS011;10504;48.762;8.996;2022-09-06T11:39:33;2.20;;;1.27;;
20689;SDS011;10504;48.762;8.996;2022-09-06T11:42:06;3.53;;;1.60;;
20689;SDS011;10504;48.762;8.996;2022-09-06T11:47:39;5.37;;;1.80;;
20689;SDS011;10504;48.762;8.996;2022-09-06T11:53:27;2.67;;;1.60;;
20689;SDS011;10504;48.762;8.996;2022-09-06T11:58:44;1.97;;;1.17;;
20689;SDS011;10504;48.762;8.996;2022-09-06T12:06:19;1.00;;;0.83;;
20689;SDS011;10504;48.762;8.996;2022-09-06T12:08:48;2.50;;;1.07;;
20689;SDS011;10504;48.762;8.996;2022-09-06T12:14:07;3.03;;;1.60;;
20689;SDS011;10504;48.762;8.996;2022-09-06T12:25:06;2.73;;;1.00;;
20689;SDS011;10504;48.762;8.996;2022-09-06T12:27:50;3.70;;;1.90;;
20689;SDS011;10504;48.762;8.996;2022-09-06T12:30:38;2.67;;;1.47;;
20689;SDS011;10504;48.762;8.996;2022-09-06T12:35:49;3.37;;;1.53;;
20689;SDS011;10504;48.762;8.996;2022-09-06T12:38:16;4.80;;;1.73;;
20689;SDS011;10504;48.762;8.996;2022-09-06T12:40:48;3.63;;;1.80;;
20689;SDS011;10504;48.762;8.996;2022-09-06T12:43:18;3.13;;;1.00;;
20689;SDS011;10504;48.762;8.996;2022-09-06T12:45:45;1.93;;;1.00;;
20689;SDS011;10504;48.762;8.996;2022-09-06T12:48:25;3.70;;;0.97;;
20689;SDS011;10504;48.762;8.996;2022-09-06T12:51:08;3.30;;;1.13;;
20689;SDS011;10504;48.762;8.996;2022-09-06T12:53:48;1.47;;;1.00;;
20689;SDS011;10504;48.762;8.996;2022-09-06T12:56:21;2.53;;;1.10;;
20689;SDS011;10504;48.762;8.996;2022-09-06T12:58:48;4.03;;;1.63;;
20689;SDS011;10504;48.762;8.996;2022-09-06T13:01:25;4.97;;;2.10;;
20689;SDS011;10504;48.762;8.996;2022-09-06T13:04:05;3.97;;;1.93;;
20689;SDS011;10504;48.762;8.996;2022-09-06T13:06:48;6.33;;;2.20;;
20689;SDS011;10504;48.762;8.996;2022-09-06T13:09:15;8.67;;;2.40;;
20689;SDS011;10504;48.762;8.996;2022-09-06T13:11:48;13.83;;;2.87;;
20689;SDS011;10504;48.762;8.996;2022-09-06T13:14:26;6.43;;;2.20;;
20689;SDS011;10504;48.762;8.996;2022-09-06T13:16:53;9.13;;;2.97;;
20689;SDS011;10504;48.762;8.996;2022-09-06T13:21:55;3.43;;;1.80;;
20689;SDS011;10504;48.762;8.996;2022-09-06T13:24:45;5.63;;;1.80;;
20689;SDS011;10504;48.762;8.996;2022-09-06T13:32:21;1.90;;;1.07;;
20689;SDS011;10504;48.762;8.996;2022-09-06T13:34:48;4.63;;;1.20;;
20689;SDS011;10504;48.762;8.996;2022-09-06T13:37:20;1.97;;;1.37;;
20689;SDS011;10504;48.762;8.996;2022-09-06T13:39:51;3.40;;;1.23;;
20689;SDS011;10504;48.762;8.996;2022-09-06T13:42:27;1.93;;;1.00;;
20689;SDS011;10504;48.762;8.996;2022-09-06T13:47:53;3.40;;;0.90;;
20689;SDS011;10504;48.762;8.996;2022-09-06T13:50:20;4.40;;;1.20;;
20689;SDS011;10504;48.762;8.996;2022-09-06T13:52:47;2.40;;;1.17;;
20689;SDS011;10504;48.762;8.996;2022-09-06T13:55:13;2.57;;;1.30;;
20689;SDS011;10504;48.762;8.996;2022-09-06T13:57:41;1.80;;;1.27;;
20689;SDS011;10504;48.762;8.996;2022-09-06T14:00:07;2.33;;;0.80;;
20689;SDS011;10504;48.762;8.996;2022-09-06T14:02:33;3.07;;;1.23;;
20689;SDS011;10504;48.762;8.996;2022-09-06T14:04:59;1.60;;;0.80;;
20689;SDS011;10504;48.762;8.996;2022-09-06T14:07:25;1.73;;;1.00;;
20689;SDS011;10504;48.762;8.996;2022-09-06T14:09:50;2.17;;;1.07;;
20689;SDS011;10504;48.762;8.996;2022-09-06T14:12:35;1.83;;;1.23;;
20689;SDS011;10504;48.762;8.996;2022-09-06T14:15:00;1.00;;;0.87;;
20689;SDS011;10504;48.762;8.996;2022-09-06T14:17:26;3.83;;;1.20;;
20689;SDS011;10504;48.762;8.996;2022-09-06T14:19:52;3.23;;;1.17;;
20689;SDS011;10504;48.762;8.996;2022-09-06T14:22:17;1.53;;;1.03;;
20689;SDS011;10504;48.762;8.996;2022-09-06T14:24:43;1.60;;;0.80;;
20689;SDS011;10504;48.762;8.996;2022-09-06T14:27:09;3.33;;;1.13;;
20689;SDS011;10504;48.762;8.996;2022-09-06T14:29:34;0.97;;;0.70;;
20689;SDS011;10504;48.762;8.996;2022-09-06T14:32:01;1.50;;;0.70;;
20689;SDS011;10504;48.762;8.996;2022-09-06T14:34:26;1.97;;;1.00;;
20689;SDS011;10504;48.762;8.996;2022-09-06T14:36:53;1.50;;;0.97;;
20689;SDS011;10504;48.762;8.996;2022-09-06T14:39:19;0.67;;;0.63;;
20689;SDS011;10504;48.762;8.996;2022-09-06T14:41:45;2.20;;;1.47;;
20689;SDS011;10504;48.762;8.996;2022-09-06T14:44:10;3.43;;;0.90;;
20689;SDS011;10504;48.762;8.996;2022-09-06T14:46:36;3.30;;;1.27;;
20689;SDS011;10504;48.762;8.996;2022-09-06T14:49:03;1.83;;;1.13;;
20689;SDS011;10504;48.762;8.996;2022-09-06T14:51:31;1.50;;;0.90;;
20689;SDS011;10504;48.762;8.996;2022-09-06T14:54:00;5.00;;;1.40;;
20689;SDS011;10504;48.762;8.996;2022-09-06T14:56:28;2.10;;;1.00;;
20689;SDS011;10504;48.762;8.996;2022-09-06T14:58:54;1.13;;;0.90;;
20689;SDS011;10504;48.762;8.996;2022-09-06T15:01:22;1.70;;;0.83;;
20689;SDS011;10504;48.762;8.996;2022-09-06T15:03:51;2.13;;;0.93;;
20689;SDS011;10504;48.762;8.996;2022-09-06T15:06:20;1.47;;;0.77;;
20689;SDS011;10504;48.762;8.996;2022-09-06T15:08:47;3.20;;;1.13;;
20689;SDS011;10504;48.762;8.996;2022-09-06T15:11:14;1.43;;;1.20;;
20689;SDS011;10504;48.762;8.996;2022-09-06T15:13:54;1.20;;;0.90;;
20689;SDS011;10504;48.762;8.996;2022-09-06T15:16:20;3.20;;;1.50;;
20689;SDS011;10504;48.762;8.996;2022-09-06T15:18:45;1.00;;;0.90;;
20689;SDS011;10504;48.762;8.996;2022-09-06T15:21:12;2.30;;;1.20;;
20689;SDS011;10504;48.762;8.996;2022-09-06T15:23:40;1.90;;;1.10;;
20689;SDS011;10504;48.762;8.996;2022-09-06T15:26:08;1.57;;;0.90;;
20689;SDS011;10504;48.762;8.996;2022-09-06T15:28:35;2.13;;;1.00;;
20689;SDS011;10504;48.762;8.996;2022-09-06T15:31:02;1.67;;;1.07;;
20689;SDS011;10504;48.762;8.996;2022-09-06T15:33:28;1.93;;;0.87;;
20689;SDS011;10504;48.762;8.996;2022-09-06T15:35:55;1.33;;;0.80;;
20689;SDS011;10504;48.762;8.996;2022-09-06T15:38:21;1.13;;;0.80;;
20689;SDS011;10504;48.762;8.996;2022-09-06T15:40:46;1.13;;;0.93;;
20689;SDS011;10504;48.762;8.996;2022-09-06T15:43:12;2.53;;;1.17;;
20689;SDS011;10504;48.762;8.996;2022-09-06T15:45:45;1.57;;;1.07;;
20689;SDS011;10504;48.762;8.996;2022-09-06T15:48:12;1.30;;;0.97;;
20689;SDS011;10504;48.762;8.996;2022-09-06T15:50:40;1.60;;;0.90;;
20689;SDS011;10504;48.762;8.996;2022-09-06T15:53:06;1.33;;;0.90;;
20689;SDS011;10504;48.762;8.996;2022-09-06T15:55:32;1.73;;;1.10;;
20689;SDS011;10504;48.762;8.996;2022-09-06T15:58:16;0.90;;;0.80;;
20689;SDS011;10504;48.762;8.996;2022-09-06T16:00:42;3.40;;;0.93;;
20689;SDS011;10504;48.762;8.996;2022-09-06T16:03:08;2.57;;;1.00;;
20689;SDS011;10504;48.762;8.996;2022-09-06T16:05:34;1.37;;;0.80;;
20689;SDS011;10504;48.762;8.996;2022-09-06T16:08:00;2.57;;;1.20;;
20689;SDS011;10504;48.762;8.996;2022-09-06T16:10:26;2.97;;;1.00;;
20689;SDS011;10504;48.762;8.996;2022-09-06T16:12:52;1.27;;;0.77;;
20689;SDS011;10504;48.762;8.996;2022-09-06T16:15:19;2.23;;;1.00;;
20689;SDS011;10504;48.762;8.996;2022-09-06T16:17:44;1.10;;;0.80;;
20689;SDS011;10504;48.762;8.996;2022-09-06T16:20:12;1.87;;;1.00;;
20689;SDS011;10504;48.762;8.996;2022-09-06T16:22:38;1.60;;;1.10;;
20689;SDS011;10504;48.762;8.996;2022-09-06T16:25:04;1.07;;;0.93;;
20689;SDS011;10504;48.762;8.996;2022-09-06T16:27:30;1.03;;;0.60;;
20689;SDS011;10504;48.762;8.996;2022-09-06T16:29:55;0.90;;;0.70;;
20689;SDS011;10504;48.762;8.996;2022-09-06T16:32:21;1.83;;;0.80;;
20689;SDS011;10504;48.762;8.996;2022-09-06T16:34:47;1.43;;;0.80;;
20689;SDS011;10504;48.762;8.996;2022-09-06T16:37:13;1.97;;;0.97;;
20689;SDS011;10504;48.762;8.996;2022-09-06T16:39:38;1.87;;;0.93;;
20689;SDS011;10504;48.762;8.996;2022-09-06T16:42:04;1.37;;;0.77;;
20689;SDS011;10504;48.762;8.996;2022-09-06T16:44:30;1.23;;;0.97;;
20689;SDS011;10504;48.762;8.996;2022-09-06T16:46:56;1.70;;;0.90;;
20689;SDS011;10504;48.762;8.996;2022-09-06T16:49:24;2.60;;;1.00;;
20689;SDS011;10504;48.762;8.996;2022-09-06T16:51:50;1.30;;;0.97;;
20689;SDS011;10504;48.762;8.996;2022-09-06T16:54:16;2.43;;;1.23;;
20689;SDS011;10504;48.762;8.996;2022-09-06T16:56:43;2.33;;;1.23;;
20689;SDS011;10504;48.762;8.996;2022-09-06T16:59:09;1.53;;;0.83;;
20689;SDS011;10504;48.762;8.996;2022-09-06T17:01:36;1.30;;;0.80;;
20689;SDS011;10504;48.762;8.996;2022-09-06T17:04:05;1.80;;;1.03;;
20689;SDS011;10504;48.762;8.996;2022-09-06T17:06:31;1.73;;;1.00;;
20689;SDS011;10504;48.762;8.996;2022-09-06T17:08:59;1.67;;;0.80;;
20689;SDS011;10504;48.762;8.996;2022-09-06T17:11:26;1.10;;;0.80;;